Terminal Aerodrome Forecast
Issued by NWS

Home | Current Version | Previous Version | Text Only | Print | Product List | Glossary On
Versions: 1 2 3 4 5 6 7 8 9 10 11 12 13
012
FTUS43 KDVN 200520
TAFCID
TAF
KCID 200520Z 2006/2106 15008KT P6SM SCT070
      TEMPO 2006/2008 -TSRA BKN040CB
     FM200900 09005KT P6SM BKN025
     FM201500 01010KT P6SM BKN035
     FM210100 02006KT P6SM SCT200=

USA.gov is the U.S. government's official web portal to all federal, state and local government web resources and services.